Time;durP1;ratioP1;P1;durP2;ratioP2;P2;SDS_P1;SDS_P2;PMS_P1;PMS_P2;Temp;Humidity;BMP_temperature;BMP_pressure;BME280_temperature;BME280_humidity;BME280_pressure;Samples;Min_cycle;Max_cycle;Signal;HPM_P1;HPM_P2
2022/06/16 00:01:25;;;;;;;1.10;1.00;;;15.80;99.90;;;;;;5039323;28;20032;-75
2022/06/16 00:03:50;;;;;;;1.30;1.17;;;15.80;99.90;;;;;;5049911;28;20415;-75
2022/06/16 00:06:16;;;;;;;1.42;0.88;;;15.80;99.90;;;;;;5050021;28;20020;-75
2022/06/16 00:08:41;;;;;;;1.23;1.13;;;15.70;99.90;;;;;;5035200;28;20086;-75
2022/06/16 00:11:16;;;;;;;0.98;0.90;;;15.60;99.90;;;;;;5032031;28;20033;-75
2022/06/16 00:13:41;;;;;;;1.40;1.30;;;15.60;99.90;;;;;;5048771;28;20251;-75
2022/06/16 00:16:09;;;;;;;2.60;0.98;;;15.60;99.90;;;;;;5030741;28;20086;-75
2022/06/16 00:18:35;;;;;;;1.63;1.52;;;15.60;99.90;;;;;;5029897;28;20047;-74
2022/06/16 00:21:01;;;;;;;1.95;1.10;;;15.50;99.90;;;;;;5041081;28;20164;-75
2022/06/16 00:23:26;;;;;;;0.73;0.73;;;15.50;99.90;;;;;;5050913;28;20100;-75
2022/06/16 00:25:52;;;;;;;0.80;0.80;;;15.50;99.90;;;;;;5039745;28;20046;-75
2022/06/16 00:28:17;;;;;;;1.15;1.05;;;15.40;99.90;;;;;;5041002;28;20571;-75
2022/06/16 00:30:43;;;;;;;1.02;1.00;;;15.40;99.90;;;;;;5036936;28;20029;-75
2022/06/16 00:33:09;;;;;;;0.82;0.80;;;15.40;99.90;;;;;;5040354;28;20022;-75
2022/06/16 00:35:34;;;;;;;5.03;1.55;;;15.40;99.90;;;;;;5037612;28;20491;-75
2022/06/16 00:38:00;;;;;;;1.05;0.95;;;15.40;99.90;;;;;;5036714;28;20219;-75
2022/06/16 00:40:25;;;;;;;1.85;0.88;;;15.40;99.90;;;;;;5030740;28;20083;-75
2022/06/16 00:42:51;;;;;;;1.52;1.42;;;15.30;99.90;;;;;;5045564;28;20032;-74
2022/06/16 00:45:43;;;;;;;1.45;0.93;;;15.30;99.90;;;;;;5051432;28;20475;-75
2022/06/16 00:48:44;;;;;;;1.08;0.98;;;15.30;99.90;;;;;;5037020;28;20037;-74
2022/06/16 00:51:21;;;;;;;1.50;1.33;;;15.20;99.90;;;;;;4988892;28;20396;-75
2022/06/16 00:53:47;;;;;;;1.55;1.00;;;15.20;99.90;;;;;;5031326;28;20456;-75
2022/06/16 00:56:19;;;;;;;1.48;1.08;;;15.20;99.90;;;;;;5031191;28;20057;-75
2022/06/16 00:58:48;;;;;;;1.33;0.98;;;15.20;99.90;;;;;;5033929;28;20026;-75
2022/06/16 01:01:17;;;;;;;1.77;0.95;;;15.30;99.90;;;;;;5030079;28;20037;-75
2022/06/16 01:06:29;;;;;;;1.40;1.30;;;15.30;99.90;;;;;;5040614;28;20079;-75
2022/06/16 01:09:02;;;;;;;1.50;0.90;;;15.20;99.90;;;;;;5037187;28;20021;-75
2022/06/16 01:14:34;;;;;;;2.00;1.10;;;15.20;99.90;;;;;;5025192;28;20064;-75
2022/06/16 01:17:07;;;;;;;2.90;0.80;;;15.20;99.90;;;;;;5030753;28;20044;-74
2022/06/16 01:19:57;;;;;;;2.10;0.95;;;15.20;99.90;;;;;;5027009;28;20044;-75
2022/06/16 01:22:38;;;;;;;1.45;1.05;;;15.10;99.90;;;;;;5038574;28;20662;-75
2022/06/16 01:25:31;;;;;;;1.27;1.00;;;15.20;99.90;;;;;;5034651;28;20485;-75
2022/06/16 01:28:25;;;;;;;1.42;1.30;;;15.10;99.90;;;;;;5028707;28;20033;-75
2022/06/16 01:31:23;;;;;;;1.83;1.35;;;15.10;99.90;;;;;;5039203;28;20045;-75
2022/06/16 01:34:07;;;;;;;1.65;1.10;;;15.00;99.90;;;;;;5031866;28;20120;-74
2022/06/16 01:36:38;;;;;;;0.90;0.90;;;15.00;99.90;;;;;;5030911;28;20507;-75
2022/06/16 01:39:28;;;;;;;3.38;1.20;;;15.00;99.90;;;;;;5030370;28;20083;-75
2022/06/16 01:42:03;;;;;;;4.03;1.30;;;15.00;99.90;;;;;;5035074;28;20029;-75
2022/06/16 01:44:44;;;;;;;1.23;0.95;;;15.00;99.90;;;;;;5039223;28;20029;-75
2022/06/16 01:47:14;;;;;;;1.30;1.20;;;15.00;99.90;;;;;;5045454;28;20115;-75
2022/06/16 01:49:45;;;;;;;1.17;1.00;;;15.00;99.90;;;;;;5048428;28;20033;-75
2022/06/16 01:52:18;;;;;;;4.15;1.52;;;15.00;99.90;;;;;;5039244;28;20124;-75
2022/06/16 01:54:49;;;;;;;1.85;1.50;;;15.00;99.90;;;;;;5046832;28;20595;-75
2022/06/16 01:57:28;;;;;;;1.45;0.77;;;15.00;99.90;;;;;;5039816;28;20582;-75
2022/06/16 02:00:15;;;;;;;1.50;1.10;;;15.00;99.90;;;;;;5038696;28;20116;-75
2022/06/16 02:02:42;;;;;;;4.30;1.80;;;14.90;99.90;;;;;;5035398;28;20484;-75
2022/06/16 02:05:19;;;;;;;1.13;0.88;;;15.00;99.90;;;;;;5038243;28;20056;-75
2022/06/16 02:07:55;;;;;;;1.38;1.20;;;14.90;99.90;;;;;;5049471;28;20028;-75
2022/06/16 02:10:27;;;;;;;1.17;1.08;;;14.90;99.90;;;;;;5049703;28;20074;-75
2022/06/16 02:12:56;;;;;;;1.15;1.05;;;14.80;99.90;;;;;;5033302;28;20033;-75
2022/06/16 02:15:37;;;;;;;1.50;1.23;;;14.80;99.90;;;;;;5022014;28;20496;-75
2022/06/16 02:18:06;;;;;;;1.42;0.90;;;14.80;99.90;;;;;;5042124;28;20029;-75
2022/06/16 02:20:39;;;;;;;1.40;1.05;;;14.70;99.90;;;;;;5044451;28;20037;-75
2022/06/16 02:23:05;;;;;;;1.15;1.00;;;14.80;99.90;;;;;;5027677;28;20025;-75
2022/06/16 02:25:30;;;;;;;1.98;1.15;;;14.70;99.90;;;;;;5028831;28;20099;-75
2022/06/16 02:27:56;;;;;;;1.52;1.17;;;14.70;99.90;;;;;;5047269;28;20029;-76
2022/06/16 02:30:26;;;;;;;1.75;1.38;;;14.70;99.90;;;;;;5033141;28;20030;-75
2022/06/16 02:33:11;;;;;;;0.90;0.90;;;14.70;99.90;;;;;;5030245;28;20160;-75
2022/06/16 02:35:48;;;;;;;3.33;1.30;;;14.70;99.90;;;;;;5026637;28;20549;-75
2022/06/16 02:38:32;;;;;;;1.13;0.90;;;14.80;99.90;;;;;;5030771;28;20048;-75
2022/06/16 02:41:37;;;;;;;0.95;0.93;;;14.80;99.90;;;;;;5029122;28;20032;-75
2022/06/16 02:44:39;;;;;;;0.70;0.70;;;14.80;99.90;;;;;;4992689;28;20045;-75
2022/06/16 02:47:43;;;;;;;;;;;14.80;99.90;;;;;;5029246;28;20086;-75
2022/06/16 02:50:11;;;;;;;3.50;1.70;;;14.90;99.90;;;;;;5031112;28;19941;-75
2022/06/16 02:52:47;;;;;;;1.65;1.02;;;14.80;99.90;;;;;;5031235;28;20082;-75
2022/06/16 02:55:19;;;;;;;1.45;1.30;;;14.80;99.90;;;;;;5027231;28;20081;-75
2022/06/16 02:57:55;;;;;;;1.88;1.45;;;14.80;99.90;;;;;;5046943;28;20025;-75
2022/06/16 03:00:29;;;;;;;1.10;0.93;;;14.70;99.90;;;;;;5045375;28;20025;-75
2022/06/16 03:02:55;;;;;;;2.28;1.10;;;14.60;99.90;;;;;;5022440;28;20072;-75
2022/06/16 03:05:20;;;;;;;2.50;1.35;;;14.50;99.90;;;;;;5031254;28;20021;-75
2022/06/16 03:07:46;;;;;;;1.95;1.17;;;14.50;99.90;;;;;;5034855;28;20116;-74
2022/06/16 03:10:14;;;;;;;1.90;1.27;;;14.50;99.90;;;;;;5030023;28;20029;-75
2022/06/16 03:12:41;;;;;;;1.35;1.15;;;14.50;99.90;;;;;;5037998;28;20029;-75
2022/06/16 03:15:11;;;;;;;0.65;0.65;;;14.50;99.90;;;;;;5032691;28;20033;-75
2022/06/16 03:17:37;;;;;;;1.67;1.00;;;14.60;99.90;;;;;;5029110;28;20416;-75
2022/06/16 03:20:03;;;;;;;1.95;1.50;;;14.60;99.90;;;;;;5028407;28;20029;-75
2022/06/16 03:22:29;;;;;;;0.88;0.80;;;14.60;99.90;;;;;;5031547;28;20369;-74
2022/06/16 03:24:54;;;;;;;2.33;1.48;;;14.60;99.90;;;;;;5030078;28;20032;-74
2022/06/16 03:27:19;;;;;;;1.75;1.10;;;14.60;99.90;;;;;;5045596;28;20453;-75
2022/06/16 03:29:45;;;;;;;2.28;1.20;;;14.70;99.90;;;;;;5027070;28;20029;-75
2022/06/16 03:32:13;;;;;;;1.60;1.50;;;14.60;99.90;;;;;;5039546;28;20105;-74
2022/06/16 03:34:39;;;;;;;1.85;1.08;;;14.60;99.90;;;;;;5028408;28;20029;-75
2022/06/16 03:37:04;;;;;;;1.15;1.02;;;14.60;99.90;;;;;;5027531;28;20083;-75
2022/06/16 03:39:30;;;;;;;3.17;1.38;;;14.60;99.90;;;;;;5029556;28;20108;-74
2022/06/16 03:41:56;;;;;;;1.13;1.02;;;14.60;99.90;;;;;;5026835;28;20064;-74
2022/06/16 03:44:21;;;;;;;2.60;1.50;;;14.60;99.90;;;;;;5027679;28;20018;-75
2022/06/16 03:46:47;;;;;;;1.13;1.02;;;14.60;99.90;;;;;;5038324;28;20025;-75
2022/06/16 03:49:13;;;;;;;3.40;1.40;;;14.60;99.90;;;;;;5025063;28;20037;-75
2022/06/16 03:51:38;;;;;;;2.30;1.13;;;14.60;99.90;;;;;;5027920;28;20112;-75
2022/06/16 03:54:04;;;;;;;2.50;1.27;;;14.70;99.90;;;;;;5032781;28;20037;-75
2022/06/16 03:56:29;;;;;;;2.33;1.40;;;14.70;99.90;;;;;;5037005;28;20040;-74
2022/06/16 03:58:56;;;;;;;1.20;1.02;;;14.80;99.90;;;;;;5033399;28;20029;-75
2022/06/16 04:01:22;;;;;;;1.40;1.08;;;14.90;99.90;;;;;;5031448;28;20029;-74
2022/06/16 04:03:59;;;;;;;1.35;1.25;;;14.80;99.90;;;;;;5040125;28;20029;-74
2022/06/16 04:06:26;;;;;;;1.33;1.23;;;15.00;99.90;;;;;;5040222;28;20599;-74
2022/06/16 04:08:52;;;;;;;5.30;1.38;;;15.10;99.90;;;;;;5032360;28;20479;-75
2022/06/16 04:11:27;;;;;;;1.20;1.10;;;15.00;99.90;;;;;;5041512;28;20045;-74
2022/06/16 04:13:54;;;;;;;1.20;1.10;;;15.00;99.90;;;;;;5031621;28;20107;-75
2022/06/16 04:16:20;;;;;;;2.38;1.30;;;15.10;99.90;;;;;;5037393;28;20148;-75
2022/06/16 04:18:45;;;;;;;0.95;0.85;;;15.00;99.90;;;;;;5033204;28;20516;-75
2022/06/16 04:21:12;;;;;;;1.20;0.90;;;15.00;99.90;;;;;;5036082;28;20037;-75
2022/06/16 04:23:38;;;;;;;2.13;0.80;;;14.90;99.90;;;;;;5032168;28;20116;-74
2022/06/16 04:26:04;;;;;;;2.47;1.48;;;15.00;99.90;;;;;;5029775;28;20029;-75
2022/06/16 04:28:30;;;;;;;2.22;0.85;;;15.00;99.90;;;;;;5037474;28;20029;-75
2022/06/16 04:30:56;;;;;;;1.77;1.42;;;15.00;99.90;;;;;;5031430;28;20194;-75
2022/06/16 04:33:22;;;;;;;1.55;0.93;;;15.10;99.90;;;;;;5025082;28;20037;-75
2022/06/16 04:35:47;;;;;;;1.65;1.13;;;15.00;99.90;;;;;;5028132;28;20033;-75
2022/06/16 04:38:13;;;;;;;3.15;1.35;;;15.00;99.90;;;;;;5030863;28;20029;-75
2022/06/16 04:40:39;;;;;;;1.48;1.00;;;15.20;99.90;;;;;;5042381;28;20536;-75
2022/06/16 04:43:04;;;;;;;1.20;1.20;;;15.30;99.90;;;;;;5026972;28;20108;-75
2022/06/16 04:45:30;;;;;;;1.85;1.27;;;15.30;99.90;;;;;;5038111;28;20056;-75
2022/06/16 04:47:58;;;;;;;1.50;0.98;;;15.40;99.90;;;;;;5028571;28;20037;-75
2022/06/16 04:50:24;;;;;;;1.55;1.38;;;15.40;99.90;;;;;;5029939;28;20099;-75
2022/06/16 04:52:50;;;;;;;1.15;1.05;;;15.50;99.90;;;;;;5040832;28;20025;-75
2022/06/16 04:55:17;;;;;;;2.08;0.95;;;15.50;99.90;;;;;;5030183;28;20103;-75
2022/06/16 04:57:45;;;;;;;1.92;1.15;;;15.40;99.90;;;;;;5037263;28;20515;-75
2022/06/16 05:00:16;;;;;;;2.30;1.27;;;15.50;99.90;;;;;;5032644;28;20033;-75
2022/06/16 05:02:42;;;;;;;1.33;1.00;;;15.60;99.90;;;;;;5028417;28;20033;-75
2022/06/16 05:05:07;;;;;;;3.17;1.00;;;15.60;99.90;;;;;;5033973;28;20476;-75
2022/06/16 05:07:34;;;;;;;0.77;0.63;;;15.70;99.90;;;;;;5034987;28;20079;-75
2022/06/16 05:09:59;;;;;;;1.80;1.13;;;15.70;99.90;;;;;;5031954;28;20030;-76
2022/06/16 05:12:25;;;;;;;0.95;0.85;;;15.40;99.90;;;;;;5029837;28;20132;-75
2022/06/16 05:14:51;;;;;;;1.10;0.98;;;15.50;99.90;;;;;;5028652;28;20098;-74
2022/06/16 05:17:16;;;;;;;1.50;1.20;;;15.60;99.90;;;;;;5029168;28;20018;-75
2022/06/16 05:19:42;;;;;;;4.63;1.20;;;15.80;99.90;;;;;;5025158;28;20025;-75
2022/06/16 05:22:07;;;;;;;1.30;1.20;;;15.80;99.90;;;;;;5029647;28;20025;-75
2022/06/16 05:24:33;;;;;;;2.25;1.10;;;15.90;99.90;;;;;;5035605;28;20396;-74
2022/06/16 05:27:25;;;;;;;0.73;0.70;;;16.00;99.90;;;;;;5027177;28;20075;-74
2022/06/16 05:29:51;;;;;;;1.85;1.27;;;16.20;99.90;;;;;;5031128;28;20048;-77
2022/06/16 05:32:16;;;;;;;1.05;0.90;;;16.30;99.90;;;;;;5036645;28;20029;-76
2022/06/16 05:34:44;;;;;;;1.98;0.73;;;16.40;99.90;;;;;;5027978;28;20037;-74
2022/06/16 05:37:09;;;;;;;3.80;1.83;;;16.50;99.90;;;;;;5032420;28;20507;-75
2022/06/16 05:39:35;;;;;;;1.05;0.95;;;16.70;99.90;;;;;;5031248;28;20022;-74
2022/06/16 05:42:00;;;;;;;0.98;0.88;;;16.80;99.90;;;;;;5033823;28;20494;-75
2022/06/16 05:44:26;;;;;;;2.22;1.20;;;16.90;99.90;;;;;;5029359;28;20024;-75
2022/06/16 05:46:52;;;;;;;3.33;2.10;;;17.00;99.90;;;;;;5030704;28;20082;-76
2022/06/16 05:49:18;;;;;;;1.50;1.00;;;17.00;99.90;;;;;;5038227;28;20040;-77
2022/06/16 05:51:44;;;;;;;1.55;1.30;;;16.90;99.90;;;;;;5027175;28;20044;-77
2022/06/16 05:54:10;;;;;;;3.88;1.40;;;16.80;99.90;;;;;;5046030;28;20041;-74
2022/06/16 05:56:35;;;;;;;0.98;0.88;;;16.90;99.90;;;;;;5029400;28;20475;-75
2022/06/16 05:59:01;;;;;;;1.65;1.20;;;17.00;99.90;;;;;;5044155;28;20032;-75
2022/06/16 06:01:27;;;;;;;0.82;0.77;;;17.10;99.90;;;;;;5043955;28;20036;-75
2022/06/16 06:03:52;;;;;;;1.20;1.05;;;17.20;99.90;;;;;;5031375;28;20030;-74
2022/06/16 06:06:18;;;;;;;1.27;1.17;;;17.40;99.90;;;;;;5041914;28;20025;-73
2022/06/16 06:17:38;;;;;;;2.22;1.13;;;17.80;99.90;;;;;;5026460;28;20391;-74
2022/06/16 06:20:04;;;;;;;0.60;0.60;;;18.00;99.90;;;;;;5027168;28;20104;-74
2022/06/16 06:22:30;;;;;;;0.82;0.82;;;18.20;99.20;;;;;;5028622;28;20029;-73
2022/06/16 06:24:58;;;;;;;1.15;1.08;;;18.30;98.10;;;;;;5024662;28;20040;-73
2022/06/16 06:27:31;;;;;;;0.77;0.77;;;18.50;98.40;;;;;;5026446;28;20037;-74
2022/06/16 06:29:56;;;;;;;1.85;1.40;;;18.60;97.20;;;;;;5028164;28;20042;-74
2022/06/16 06:32:23;;;;;;;2.00;1.10;;;18.70;96.80;;;;;;5026645;28;20064;-74
2022/06/16 06:34:48;;;;;;;1.10;0.80;;;18.70;96.10;;;;;;5024531;28;20087;-76
2022/06/16 06:37:17;;;;;;;1.20;1.00;;;18.80;96.30;;;;;;5026580;28;20033;-73
2022/06/16 06:39:43;;;;;;;1.13;1.00;;;18.80;96.50;;;;;;5026788;28;20025;-73
2022/06/16 06:42:08;;;;;;;2.42;1.58;;;18.90;95.70;;;;;;5025928;28;20090;-73
2022/06/16 06:44:34;;;;;;;1.25;1.13;;;18.90;95.60;;;;;;5007806;28;20530;-73
2022/06/16 06:47:00;;;;;;;1.10;1.00;;;18.90;94.50;;;;;;5025411;28;20033;-73
2022/06/16 06:49:26;;;;;;;5.55;1.48;;;19.00;94.60;;;;;;5026031;28;20029;-72
2022/06/16 06:51:51;;;;;;;1.95;0.90;;;19.00;94.70;;;;;;5022808;28;20593;-73
2022/06/16 06:54:18;;;;;;;0.70;0.70;;;19.20;96.00;;;;;;5024153;28;20037;-73
2022/06/16 06:56:44;;;;;;;1.02;0.90;;;19.30;94.90;;;;;;5025030;28;20034;-72
2022/06/16 06:59:13;;;;;;;2.35;1.10;;;19.40;92.60;;;;;;5026779;28;20057;-73
2022/06/16 07:01:39;;;;;;;1.40;1.25;;;19.30;92.70;;;;;;5023255;28;20045;-74
2022/06/16 07:04:05;;;;;;;1.15;1.05;;;19.40;91.80;;;;;;5025555;28;20052;-78
2022/06/16 07:06:30;;;;;;;1.77;1.23;;;19.50;92.80;;;;;;5024153;28;20044;-73
2022/06/16 07:08:56;;;;;;;1.50;1.10;;;19.70;92.50;;;;;;5026847;28;20026;-73
2022/06/16 07:11:22;;;;;;;1.00;0.90;;;19.60;91.90;;;;;;5027056;28;20025;-73
2022/06/16 07:13:48;;;;;;;1.15;0.90;;;19.80;91.90;;;;;;5024735;28;20032;-73
2022/06/16 07:16:14;;;;;;;1.15;1.00;;;20.00;91.10;;;;;;5025460;28;20026;-74
2022/06/16 07:18:39;;;;;;;2.75;1.35;;;20.00;90.90;;;;;;5027149;28;20021;-74
2022/06/16 07:21:06;;;;;;;4.05;1.38;;;20.20;90.80;;;;;;5027469;28;20160;-73
2022/06/16 07:23:32;;;;;;;1.60;0.82;;;20.30;92.20;;;;;;5026328;28;20030;-73
2022/06/16 07:25:58;;;;;;;1.08;0.90;;;20.20;89.60;;;;;;5027359;28;20616;-74
2022/06/16 07:28:23;;;;;;;1.88;1.05;;;20.30;88.50;;;;;;5030913;28;20548;-73
2022/06/16 07:31:12;;;;;;;0.73;0.73;;;20.30;87.50;;;;;;5030798;28;20026;-74
2022/06/16 07:33:38;;;;;;;1.23;1.00;;;20.10;86.30;;;;;;5024071;28;20515;-73
2022/06/16 07:36:04;;;;;;;11.30;1.27;;;19.80;88.90;;;;;;5031993;28;20071;-73
2022/06/16 07:38:29;;;;;;;2.00;0.80;;;19.70;90.00;;;;;;5028934;28;20030;-73
2022/06/16 07:41:30;;;;;;;0.88;0.80;;;19.80;88.30;;;;;;5027586;28;20488;-74
2022/06/16 07:43:41;;;;;;;3.47;1.15;;;20.00;88.10;;;;;;5031486;28;20115;-74
2022/06/16 07:46:07;;;;;;;1.00;0.93;;;20.20;88.10;;;;;;5031860;28;20045;-73
2022/06/16 07:48:32;;;;;;;3.97;1.52;;;20.40;89.20;;;;;;5030295;28;20033;-73
2022/06/16 07:51:35;;;;;;;2.58;1.30;;;20.40;86.60;;;;;;5047721;28;20068;-73
2022/06/16 07:54:01;;;;;;;2.78;1.45;;;20.30;88.40;;;;;;5028144;28;20041;-72
2022/06/16 07:56:27;;;;;;;1.48;1.38;;;20.20;87.10;;;;;;5034457;28;20021;-74
2022/06/16 07:58:53;;;;;;;4.25;1.40;;;20.10;88.80;;;;;;5035720;28;20480;-75
2022/06/16 08:01:18;;;;;;;2.75;1.00;;;20.10;90.00;;;;;;5033299;28;20068;-74
2022/06/16 08:03:47;;;;;;;1.23;1.13;;;20.10;88.10;;;;;;5033496;28;20032;-73
2022/06/16 08:06:20;;;;;;;0.93;0.93;;;20.10;89.00;;;;;;5029619;28;20056;-80
2022/06/16 08:08:46;;;;;;;0.85;0.85;;;20.20;89.10;;;;;;5029262;28;20072;-75
2022/06/16 08:13:58;;;;;;;4.40;1.65;;;20.00;87.00;;;;;;5034207;28;20407;-76
2022/06/16 08:16:23;;;;;;;1.20;1.10;;;20.30;89.00;;;;;;5029955;28;20090;-73
2022/06/16 08:18:49;;;;;;;0.80;0.80;;;20.50;86.60;;;;;;5026798;28;20396;-74
2022/06/16 08:21:15;;;;;;;1.15;1.05;;;20.50;86.50;;;;;;5044389;28;20097;-76
2022/06/16 08:23:40;;;;;;;2.25;0.77;;;20.60;87.00;;;;;;5051698;28;20111;-75
2022/06/16 08:26:06;;;;;;;1.27;1.13;;;20.80;87.70;;;;;;5051066;28;20108;-75
2022/06/16 08:28:33;;;;;;;1.33;1.17;;;20.90;84.80;;;;;;5051550;28;20024;-74
2022/06/16 08:30:59;;;;;;;0.80;0.80;;;20.90;83.10;;;;;;5026688;28;20105;-74
2022/06/16 08:33:25;;;;;;;1.23;1.10;;;20.90;85.30;;;;;;5035446;28;20071;-75
2022/06/16 08:35:52;;;;;;;3.92;1.30;;;21.00;84.10;;;;;;5050797;28;20045;-74
2022/06/16 08:38:17;;;;;;;0.70;0.70;;;21.10;82.50;;;;;;5030654;28;20033;-74
2022/06/16 08:40:46;;;;;;;1.23;1.02;;;21.10;84.70;;;;;;5030495;28;20036;-74
2022/06/16 08:43:29;;;;;;;3.25;1.15;;;21.30;84.20;;;;;;5027610;28;20029;-74
2022/06/16 08:45:58;;;;;;;1.60;0.95;;;21.30;81.00;;;;;;5028103;28;20040;-74
2022/06/16 08:48:45;;;;;;;2.42;1.30;;;21.40;83.80;;;;;;5036789;28;20037;-75
2022/06/16 08:51:28;;;;;;;1.10;1.00;;;21.50;82.00;;;;;;5025733;28;20426;-75
2022/06/16 08:54:18;;;;;;;0.93;0.90;;;21.70;81.10;;;;;;5030897;28;20167;-74
2022/06/16 08:57:07;;;;;;;1.75;0.85;;;22.10;77.70;;;;;;5030928;28;20059;-74
2022/06/16 08:59:54;;;;;;;2.88;1.33;;;22.60;72.90;;;;;;5028862;28;20038;-75
2022/06/16 09:02:41;;;;;;;1.45;1.27;;;23.00;71.60;;;;;;5028305;28;20394;-74
2022/06/16 09:05:52;;;;;;;1.17;0.93;;;22.80;67.50;;;;;;5023933;28;20032;-74
2022/06/16 09:08:45;;;;;;;1.00;0.90;;;22.80;69.80;;;;;;4993623;28;20034;-74
2022/06/16 09:11:22;;;;;;;1.67;1.00;;;22.70;73.40;;;;;;5038772;28;20495;-74
2022/06/16 09:15:10;;;;;;;1.92;1.13;;;22.70;69.10;;;;;;5040152;28;20060;-74
2022/06/16 09:17:37;;;;;;;0.90;0.90;;;23.00;70.30;;;;;;5029322;28;20124;-74
2022/06/16 09:20:21;;;;;;;0.95;0.93;;;23.20;70.10;;;;;;5037144;28;20045;-74
2022/06/16 09:23:18;;;;;;;1.30;1.20;;;23.50;67.70;;;;;;5048514;28;20025;-74
2022/06/16 09:25:54;;;;;;;0.82;0.82;;;23.60;66.80;;;;;;5026743;28;20057;-75
2022/06/16 09:28:35;;;;;;;1.15;1.00;;;23.60;69.70;;;;;;5029509;28;20021;-74
2022/06/16 09:31:04;;;;;;;1.10;1.00;;;23.60;68.10;;;;;;5043370;28;20479;-74
2022/06/16 09:33:35;;;;;;;1.35;1.23;;;23.50;68.30;;;;;;5037219;28;20116;-74
2022/06/16 09:36:15;;;;;;;;;;;23.50;69.50;;;;;;5033873;28;20743;-75
2022/06/16 09:39:05;;;;;;;6.38;1.77;;;23.60;68.60;;;;;;5028396;28;19913;-75
2022/06/16 09:44:57;;;;;;;1.13;1.02;;;23.50;65.80;;;;;;5047359;28;20098;-73
2022/06/16 09:47:34;;;;;;;1.38;0.98;;;23.30;64.70;;;;;;5028774;28;20317;-75
2022/06/16 09:50:19;;;;;;;1.63;1.10;;;23.20;63.90;;;;;;5030082;28;20021;-75
2022/06/16 09:52:57;;;;;;;1.25;1.15;;;23.20;65.90;;;;;;5028473;28;20037;-74
2022/06/16 09:55:39;;;;;;;1.05;0.95;;;23.20;66.70;;;;;;5028258;28;20046;-75
2022/06/16 09:58:22;;;;;;;1.48;1.38;;;23.50;65.20;;;;;;5019020;28;20030;-75
2022/06/16 10:00:50;;;;;;;2.63;1.50;;;23.70;64.40;;;;;;5029796;28;20025;-74
2022/06/16 10:03:40;;;;;;;1.98;1.15;;;24.10;64.70;;;;;;5039829;28;20445;-74
2022/06/16 10:06:27;;;;;;;2.63;1.20;;;24.60;64.40;;;;;;5038992;28;20490;-74
2022/06/16 10:09:14;;;;;;;1.25;1.15;;;24.80;63.10;;;;;;5029453;28;20106;-74
2022/06/16 10:12:29;;;;;;;1.13;1.02;;;25.10;62.60;;;;;;5028809;28;20021;-74
2022/06/16 10:14:54;;;;;;;1.30;1.00;;;25.50;57.60;;;;;;5009782;28;20182;-74
2022/06/16 10:17:22;;;;;;;1.15;1.05;;;25.50;57.50;;;;;;5048864;28;20463;-74
2022/06/16 10:19:48;;;;;;;1.27;1.17;;;25.60;58.70;;;;;;5028845;28;20484;-74
2022/06/16 10:22:19;;;;;;;5.20;1.95;;;25.60;58.90;;;;;;5029574;28;20036;-74
2022/06/16 10:25:04;;;;;;;7.93;1.42;;;25.20;57.90;;;;;;5027816;28;20032;-75
2022/06/16 10:27:44;;;;;;;1.33;1.10;;;25.30;57.40;;;;;;5027489;28;20033;-75
2022/06/16 10:30:17;;;;;;;1.17;1.00;;;25.10;57.70;;;;;;5027397;28;20029;-75
2022/06/16 10:32:47;;;;;;;1.20;1.10;;;25.20;57.20;;;;;;5026130;28;20049;-74
2022/06/16 10:35:21;;;;;;;0.80;0.80;;;25.10;57.80;;;;;;5029438;28;20064;-75
2022/06/16 10:37:50;;;;;;;7.55;1.30;;;25.10;59.40;;;;;;5025880;28;20018;-75
2022/06/16 10:40:22;;;;;;;1.10;0.80;;;25.20;60.10;;;;;;5029249;28;20232;-75
2022/06/16 10:42:51;;;;;;;0.80;0.80;;;25.40;57.70;;;;;;5034444;28;20035;-75
2022/06/16 10:45:22;;;;;;;1.75;1.05;;;25.30;58.10;;;;;;5030021;28;20036;-74
2022/06/16 10:47:52;;;;;;;2.07;1.00;;;25.60;58.50;;;;;;5028349;28;20025;-75
2022/06/16 10:50:25;;;;;;;1.00;0.90;;;25.60;58.10;;;;;;5021757;28;20037;-74
2022/06/16 10:53:07;;;;;;;1.77;1.15;;;25.80;56.40;;;;;;5027766;28;20057;-75
2022/06/16 10:55:55;;;;;;;1.00;0.85;;;25.90;57.50;;;;;;5026094;28;20049;-74
2022/06/16 10:58:26;;;;;;;0.95;0.93;;;26.10;56.80;;;;;;5049062;28;20033;-75
2022/06/16 11:01:16;;;;;;;1.08;0.98;;;25.90;56.00;;;;;;5048545;28;20025;-75
2022/06/16 11:03:44;;;;;;;2.75;1.38;;;26.10;58.60;;;;;;5033234;28;20033;-74
2022/06/16 11:06:14;;;;;;;1.02;1.02;;;26.10;56.30;;;;;;5033721;28;20037;-75
2022/06/16 11:08:56;;;;;;;0.90;0.90;;;25.80;56.30;;;;;;5044744;28;20061;-75
2022/06/16 11:11:46;;;;;;;2.00;1.00;;;25.30;58.90;;;;;;5049042;28;20025;-74
2022/06/16 11:14:22;;;;;;;1.63;1.13;;;24.70;58.80;;;;;;5040540;28;20029;-75
2022/06/16 11:16:52;;;;;;;1.88;1.00;;;24.40;60.20;;;;;;5027427;28;20037;-75
2022/06/16 11:19:34;;;;;;;1.05;0.75;;;24.40;61.10;;;;;;5020257;28;20072;-75
2022/06/16 11:22:04;;;;;;;1.13;1.02;;;24.10;59.20;;;;;;5029648;28;20056;-75
2022/06/16 11:24:33;;;;;;;1.00;0.90;;;24.10;60.80;;;;;;5029013;28;20021;-74
2022/06/16 11:27:15;;;;;;;1.15;1.05;;;24.70;58.90;;;;;;5028175;28;20026;-75
2022/06/16 11:29:41;;;;;;;1.35;1.10;;;25.00;58.50;;;;;;5027059;28;20034;-75
2022/06/16 11:32:24;;;;;;;1.08;0.95;;;25.10;57.20;;;;;;5038671;28;20079;-75
2022/06/16 11:34:50;;;;;;;1.63;0.93;;;25.10;57.70;;;;;;5041366;28;20029;-75
2022/06/16 11:37:43;;;;;;;2.78;1.15;;;25.50;57.80;;;;;;5029338;28;20022;-74
2022/06/16 11:40:23;;;;;;;0.85;0.85;;;25.80;57.70;;;;;;5025740;28;20026;-74
2022/06/16 11:43:03;;;;;;;1.48;1.08;;;26.10;53.20;;;;;;5027131;28;20630;-75
2022/06/16 11:45:40;;;;;;;1.45;1.10;;;26.20;56.40;;;;;;5029141;28;20037;-74
2022/06/16 11:48:24;;;;;;;2.97;1.08;;;27.00;54.20;;;;;;5029215;28;20357;-76
2022/06/16 11:51:13;;;;;;;1.13;1.02;;;27.20;51.70;;;;;;5026198;28;20103;-74
2022/06/16 11:53:57;;;;;;;1.00;1.00;;;27.50;51.00;;;;;;5021040;28;20049;-74
2022/06/16 11:57:24;;;;;;;0.98;0.95;;;27.90;51.60;;;;;;5017013;28;20554;-75
2022/06/16 12:00:05;;;;;;;1.45;1.27;;;27.80;51.90;;;;;;4977472;28;20039;-75
2022/06/16 12:02:49;;;;;;;2.63;1.15;;;27.50;50.50;;;;;;4990721;28;20386;-74
2022/06/16 12:05:33;;;;;;;1.40;1.30;;;27.90;52.40;;;;;;5037153;28;20032;-74
2022/06/16 12:08:25;;;;;;;1.15;0.95;;;28.50;50.70;;;;;;5049090;28;20039;-76
2022/06/16 12:10:57;;;;;;;2.90;1.00;;;28.70;49.40;;;;;;5046762;28;20025;-75
2022/06/16 12:13:34;;;;;;;1.15;1.05;;;29.00;48.90;;;;;;5042605;28;20647;-74
2022/06/16 12:16:13;;;;;;;1.17;1.08;;;29.00;45.40;;;;;;5042785;28;20468;-74
2022/06/16 12:19:02;;;;;;;1.00;1.00;;;29.40;48.80;;;;;;5032299;28;20032;-75
2022/06/16 12:21:50;;;;;;;3.25;1.17;;;29.70;47.90;;;;;;5032391;28;20021;-75
2022/06/16 12:24:42;;;;;;;2.88;1.13;;;29.70;48.00;;;;;;5041665;28;20051;-75
2022/06/16 12:27:24;;;;;;;1.58;1.35;;;30.60;46.70;;;;;;5037466;28;20057;-74
2022/06/16 12:30:07;;;;;;;1.83;1.40;;;30.50;45.30;;;;;;5033507;28;20037;-76
2022/06/16 12:32:53;;;;;;;1.10;1.00;;;30.30;43.80;;;;;;5039525;28;20108;-77
2022/06/16 12:35:33;;;;;;;1.17;1.08;;;29.60;47.10;;;;;;5031177;28;20091;-79
2022/06/16 12:38:12;;;;;;;1.45;1.30;;;29.90;45.00;;;;;;5032539;28;20116;-78
2022/06/16 12:40:43;;;;;;;0.73;0.70;;;30.20;46.30;;;;;;5028923;28;20493;-75
2022/06/16 12:43:21;;;;;;;1.50;1.08;;;30.70;47.10;;;;;;5032668;28;20678;-77
2022/06/16 12:45:54;;;;;;;2.50;1.38;;;29.80;47.40;;;;;;5031653;28;20033;-73
2022/06/16 12:48:28;;;;;;;1.80;1.27;;;30.40;44.10;;;;;;5031691;28;20057;-75
2022/06/16 12:51:01;;;;;;;1.55;1.08;;;31.20;46.40;;;;;;5029873;28;20030;-74
2022/06/16 12:53:32;;;;;;;1.23;0.95;;;32.30;44.60;;;;;;5030205;28;20069;-75
2022/06/16 12:56:14;;;;;;;2.28;1.25;;;32.10;41.20;;;;;;5035306;28;20103;-75
2022/06/16 12:58:49;;;;;;;0.82;0.82;;;30.00;44.30;;;;;;5028896;28;20041;-75
2022/06/16 13:01:15;;;;;;;1.10;1.00;;;30.70;44.70;;;;;;5051360;28;20081;-75
2022/06/16 13:03:43;;;;;;;1.75;1.17;;;29.80;44.60;;;;;;5051307;28;20241;-74
2022/06/16 13:06:11;;;;;;;1.20;0.90;;;29.00;46.40;;;;;;5042003;28;20124;-73
2022/06/16 13:08:41;;;;;;;2.03;1.10;;;31.10;45.00;;;;;;5030258;28;20033;-75
2022/06/16 13:11:12;;;;;;;4.20;1.40;;;34.50;40.30;;;;;;5040418;28;20029;-74
2022/06/16 13:13:43;;;;;;;1.52;1.10;;;34.70;39.00;;;;;;5029045;28;20401;-73
2022/06/16 13:16:09;;;;;;;1.25;1.15;;;35.50;38.80;;;;;;5029280;28;20116;-73
2022/06/16 13:18:45;;;;;;;1.10;1.00;;;34.20;37.20;;;;;;5048963;28;20116;-73
2022/06/16 13:21:23;;;;;;;1.27;1.05;;;32.70;39.40;;;;;;5039259;28;20033;-72
2022/06/16 13:23:55;;;;;;;1.33;1.05;;;34.40;37.90;;;;;;5018787;28;20094;-73
2022/06/16 13:26:31;;;;;;;3.05;1.23;;;32.80;38.80;;;;;;5029398;28;20108;-74
2022/06/16 13:29:05;;;;;;;2.78;1.10;;;32.40;40.60;;;;;;5031136;28;20025;-73
2022/06/16 13:32:03;;;;;;;1.00;0.90;;;33.00;38.80;;;;;;5032187;28;20041;-73
2022/06/16 13:34:51;;;;;;;1.95;0.93;;;33.10;39.40;;;;;;5025167;28;20029;-74
2022/06/16 13:37:31;;;;;;;2.13;1.17;;;34.00;37.40;;;;;;5027628;28;20033;-72
2022/06/16 13:40:16;;;;;;;0.90;0.90;;;33.90;37.10;;;;;;5030418;28;20033;-73